OCN9AA LDZD-EDDF
Flight info
| Callsign | OCN9AA |
|---|---|
| Flight time | 1h 18m |
| Altitude | 36000 |
| Route | RAVNA DCT BUSET DCT GIMIX DCT RASTA DCT SIMBA DCT AKINI T161 DEBHI SPESA5B |
| Aircraft | A320/M-SDE3FGHIRWY/LB1 |
Departure
| Time | 2026-05-05 20:15 |
|---|---|
| Airport | Zadar Airport (LDZD) |
Arrival
| Time | 2026-05-05 21:33 |
|---|---|
| Airport | Frankfurt Main Airport (EDDF) |
| Time | Latitude | Longitude | Altitude | Speed | Heading |
|---|---|---|---|---|---|
| 2026-05-05 19:36 | 44.09798 | 15.35361 | 265 ft | 0 kts | 309° |
| 2026-05-05 20:08 | 44.09798 | 15.35359 | 265 ft | 0 kts | 300° |
| 2026-05-05 20:08 | 44.09796 | 15.35354 | 265 ft | 1 kts | 221° |
| 2026-05-05 20:08 | 44.09782 | 15.35373 | 265 ft | 5 kts | 123° |
| 2026-05-05 20:08 | 44.09771 | 15.35429 | 264 ft | 7 kts | 91° |
| 2026-05-05 20:09 | 44.09783 | 15.35514 | 262 ft | 11 kts | 37° |
| 2026-05-05 20:09 | 44.09869 | 15.35518 | 261 ft | 13 kts | 355° |
| 2026-05-05 20:09 | 44.09948 | 15.35441 | 260 ft | 14 kts | 316° |
| 2026-05-05 20:09 | 44.10021 | 15.35341 | 261 ft | 15 kts | 315° |
| 2026-05-05 20:10 | 44.10101 | 15.35232 | 260 ft | 16 kts | 315° |
| 2026-05-05 20:10 | 44.10189 | 15.35112 | 258 ft | 18 kts | 315° |
| 2026-05-05 20:10 | 44.10286 | 15.34982 | 256 ft | 20 kts | 316° |
| 2026-05-05 20:10 | 44.10393 | 15.34839 | 252 ft | 22 kts | 316° |
| 2026-05-05 20:11 | 44.10507 | 15.34683 | 249 ft | 23 kts | 316° |
| 2026-05-05 20:11 | 44.10623 | 15.34526 | 248 ft | 23 kts | 315° |
| 2026-05-05 20:11 | 44.10737 | 15.34371 | 248 ft | 22 kts | 315° |
| 2026-05-05 20:11 | 44.10847 | 15.34221 | 248 ft | 22 kts | 315° |
| 2026-05-05 20:12 | 44.10961 | 15.34068 | 246 ft | 23 kts | 316° |
| 2026-05-05 20:12 | 44.11076 | 15.33911 | 245 ft | 23 kts | 315° |
| 2026-05-05 20:12 | 44.11190 | 15.33758 | 245 ft | 22 kts | 316° |
| 2026-05-05 20:12 | 44.11305 | 15.33602 | 242 ft | 23 kts | 314° |
| 2026-05-05 20:13 | 44.11423 | 15.33441 | 240 ft | 24 kts | 316° |
| 2026-05-05 20:13 | 44.11498 | 15.33382 | 239 ft | 11 kts | 21° |
| 2026-05-05 20:13 | 44.11560 | 15.33461 | 239 ft | 12 kts | 45° |
| 2026-05-05 20:13 | 44.11617 | 15.33554 | 240 ft | 12 kts | 74° |
| 2026-05-05 20:14 | 44.11579 | 15.33649 | 242 ft | 13 kts | 135° |
| 2026-05-05 20:14 | 44.11335 | 15.33981 | 245 ft | 88 kts | 135° |
| 2026-05-05 20:14 | 44.10719 | 15.34817 | 250 ft | 155 kts | 135° |
| 2026-05-05 20:14 | 44.09891 | 15.35901 | 832 ft | 166 kts | 137° |
| 2026-05-05 20:15 | 44.09113 | 15.37012 | 1751 ft | 162 kts | 134° |
| 2026-05-05 20:15 | 44.08388 | 15.38178 | 2527 ft | 167 kts | 133° |
| 2026-05-05 20:15 | 44.07600 | 15.39446 | 3105 ft | 183 kts | 133° |
| 2026-05-05 20:15 | 44.06731 | 15.40833 | 3678 ft | 200 kts | 133° |
| 2026-05-05 20:16 | 44.05726 | 15.42307 | 4132 ft | 223 kts | 145° |
| 2026-05-05 20:16 | 44.04254 | 15.43097 | 4699 ft | 239 kts | 176° |
| 2026-05-05 20:16 | 44.02593 | 15.42668 | 5326 ft | 255 kts | 208° |
| 2026-05-05 20:16 | 44.01309 | 15.41031 | 6128 ft | 263 kts | 239° |
| 2026-05-05 20:17 | 44.00858 | 15.38618 | 7089 ft | 267 kts | 272° |
| 2026-05-05 20:17 | 44.01470 | 15.36197 | 8071 ft | 273 kts | 305° |
| 2026-05-05 20:17 | 44.02951 | 15.34633 | 8965 ft | 283 kts | 336° |
| 2026-05-05 20:17 | 44.04920 | 15.34371 | 9867 ft | 295 kts | 5° |
| 2026-05-05 20:18 | 44.06922 | 15.35076 | 10690 ft | 304 kts | 13° |
| 2026-05-05 20:18 | 44.09024 | 15.35680 | 11205 ft | 314 kts | 355° |
| 2026-05-05 20:18 | 44.11093 | 15.34886 | 11907 ft | 310 kts | 324° |
| 2026-05-05 20:18 | 44.12746 | 15.33022 | 12771 ft | 308 kts | 315° |
| 2026-05-05 20:19 | 44.14357 | 15.31049 | 13558 ft | 313 kts | 315° |
| 2026-05-05 20:19 | 44.16006 | 15.29067 | 14333 ft | 316 kts | 316° |
| 2026-05-05 20:19 | 44.17686 | 15.27080 | 15079 ft | 320 kts | 316° |
| 2026-05-05 20:19 | 44.19368 | 15.25110 | 15792 ft | 323 kts | 316° |
| 2026-05-05 20:20 | 44.21092 | 15.23099 | 16513 ft | 326 kts | 316° |
| 2026-05-05 20:20 | 44.22836 | 15.21070 | 17190 ft | 330 kts | 317° |
| 2026-05-05 20:20 | 44.24601 | 15.19019 | 17829 ft | 334 kts | 317° |
| 2026-05-05 20:20 | 44.26392 | 15.16938 | 18456 ft | 338 kts | 316° |
| 2026-05-05 20:21 | 44.28195 | 15.14843 | 19116 ft | 340 kts | 317° |
| 2026-05-05 20:21 | 44.30013 | 15.12730 | 19761 ft | 343 kts | 317° |
| 2026-05-05 20:21 | 44.31846 | 15.10595 | 20379 ft | 346 kts | 317° |
| 2026-05-05 20:21 | 44.33702 | 15.08435 | 20975 ft | 350 kts | 317° |
| 2026-05-05 20:22 | 44.35569 | 15.06260 | 21577 ft | 352 kts | 317° |
| 2026-05-05 20:22 | 44.37452 | 15.04065 | 22161 ft | 355 kts | 317° |
| 2026-05-05 20:22 | 44.39352 | 15.01849 | 22727 ft | 359 kts | 317° |
| 2026-05-05 20:22 | 44.41270 | 14.99608 | 23270 ft | 362 kts | 317° |
| 2026-05-05 20:23 | 44.43204 | 14.97346 | 23816 ft | 365 kts | 317° |
| 2026-05-05 20:23 | 44.45152 | 14.95069 | 24379 ft | 367 kts | 317° |
| 2026-05-05 20:23 | 44.47106 | 14.92783 | 24959 ft | 368 kts | 317° |
| 2026-05-05 20:23 | 44.49068 | 14.90481 | 25499 ft | 370 kts | 317° |
| 2026-05-05 20:24 | 44.51028 | 14.88223 | 26003 ft | 373 kts | 319° |
| 2026-05-05 20:24 | 44.53164 | 14.86134 | 26500 ft | 378 kts | 324° |
| 2026-05-05 20:24 | 44.55462 | 14.84314 | 26991 ft | 382 kts | 329° |
| 2026-05-05 20:24 | 44.57870 | 14.82711 | 27487 ft | 385 kts | 331° |
| 2026-05-05 20:25 | 44.60306 | 14.81146 | 27939 ft | 387 kts | 331° |
| 2026-05-05 20:25 | 44.62764 | 14.79573 | 28372 ft | 389 kts | 331° |
| 2026-05-05 20:25 | 44.65231 | 14.77995 | 28857 ft | 390 kts | 331° |
| 2026-05-05 20:25 | 44.67669 | 14.76430 | 29287 ft | 392 kts | 331° |
| 2026-05-05 20:26 | 44.70155 | 14.74832 | 29687 ft | 394 kts | 331° |
| 2026-05-05 20:26 | 44.72652 | 14.73222 | 30070 ft | 397 kts | 331° |
| 2026-05-05 20:26 | 44.75175 | 14.71595 | 30443 ft | 399 kts | 330° |
| 2026-05-05 20:26 | 44.77671 | 14.69985 | 30838 ft | 400 kts | 330° |
| 2026-05-05 20:27 | 44.80200 | 14.68347 | 31225 ft | 402 kts | 330° |
| 2026-05-05 20:27 | 44.82743 | 14.66702 | 31563 ft | 404 kts | 330° |
| 2026-05-05 20:27 | 44.85297 | 14.65046 | 31931 ft | 405 kts | 330° |
| 2026-05-05 20:27 | 44.87864 | 14.63382 | 32265 ft | 407 kts | 330° |
| 2026-05-05 20:28 | 44.90436 | 14.61710 | 32567 ft | 409 kts | 330° |
| 2026-05-05 20:28 | 44.93024 | 14.60029 | 32891 ft | 411 kts | 330° |
| 2026-05-05 20:28 | 44.95612 | 14.58341 | 33236 ft | 411 kts | 329° |
| 2026-05-05 20:28 | 44.98212 | 14.56650 | 33555 ft | 412 kts | 329° |
| 2026-05-05 20:29 | 45.00783 | 14.54973 | 33809 ft | 414 kts | 329° |
| 2026-05-05 20:29 | 45.03391 | 14.53270 | 34148 ft | 413 kts | 329° |
| 2026-05-05 20:29 | 45.05996 | 14.51572 | 34544 ft | 412 kts | 329° |
| 2026-05-05 20:29 | 45.08592 | 14.49872 | 34838 ft | 412 kts | 329° |
| 2026-05-05 20:30 | 45.11203 | 14.48157 | 35029 ft | 415 kts | 329° |
| 2026-05-05 20:30 | 45.13828 | 14.46434 | 35274 ft | 417 kts | 329° |
| 2026-05-05 20:30 | 45.16426 | 14.44728 | 35507 ft | 418 kts | 329° |
| 2026-05-05 20:30 | 45.19073 | 14.42987 | 35722 ft | 419 kts | 329° |
| 2026-05-05 20:31 | 45.21724 | 14.41244 | 35902 ft | 421 kts | 329° |
| 2026-05-05 20:31 | 45.27022 | 14.37757 | 35977 ft | 423 kts | 329° |
| 2026-05-05 20:32 | 45.32376 | 14.34226 | 35980 ft | 424 kts | 329° |
| 2026-05-05 20:32 | 45.37722 | 14.30689 | 35974 ft | 425 kts | 329° |
| 2026-05-05 20:33 | 45.43035 | 14.27168 | 35973 ft | 423 kts | 329° |
| 2026-05-05 20:33 | 45.48397 | 14.23623 | 35976 ft | 426 kts | 330° |
| 2026-05-05 20:34 | 45.53905 | 14.20589 | 35965 ft | 428 kts | 334° |
| 2026-05-05 20:34 | 45.59524 | 14.17827 | 35965 ft | 429 kts | 335° |
| 2026-05-05 20:35 | 45.65176 | 14.15056 | 35961 ft | 430 kts | 335° |
| 2026-05-05 20:35 | 45.70831 | 14.12270 | 35961 ft | 431 kts | 335° |
| 2026-05-05 20:36 | 45.76464 | 14.09489 | 35964 ft | 430 kts | 335° |
| 2026-05-05 20:36 | 45.82108 | 14.06694 | 35958 ft | 430 kts | 335° |
| 2026-05-05 20:37 | 45.87794 | 14.03876 | 36087 ft | 431 kts | 335° |
| 2026-05-05 20:37 | 45.89662 | 14.02946 | 35827 ft | 430 kts | 335° |
| 2026-05-05 20:37 | 45.93436 | 14.01066 | 35918 ft | 431 kts | 335° |
| 2026-05-05 20:38 | 45.99105 | 13.98240 | 35956 ft | 432 kts | 335° |
| 2026-05-05 20:38 | 46.04780 | 13.95406 | 35951 ft | 434 kts | 335° |
| 2026-05-05 20:39 | 46.10487 | 13.92549 | 35938 ft | 436 kts | 335° |
| 2026-05-05 20:39 | 46.16187 | 13.89688 | 35938 ft | 436 kts | 335° |
| 2026-05-05 20:40 | 46.21917 | 13.86807 | 35939 ft | 436 kts | 335° |
| 2026-05-05 20:40 | 46.27646 | 13.83919 | 35940 ft | 438 kts | 335° |
| 2026-05-05 20:41 | 46.33406 | 13.81006 | 35931 ft | 439 kts | 335° |
| 2026-05-05 20:41 | 46.39166 | 13.78089 | 35941 ft | 442 kts | 335° |
| 2026-05-05 20:42 | 46.44970 | 13.75142 | 35946 ft | 443 kts | 336° |
| 2026-05-05 20:42 | 46.50808 | 13.72209 | 35942 ft | 445 kts | 337° |
| 2026-05-05 20:43 | 46.56809 | 13.69871 | 35946 ft | 449 kts | 342° |
| 2026-05-05 20:43 | 46.62870 | 13.67839 | 35944 ft | 449 kts | 342° |
| 2026-05-05 20:44 | 46.68942 | 13.65804 | 35942 ft | 450 kts | 342° |
| 2026-05-05 20:44 | 46.75051 | 13.63743 | 35947 ft | 450 kts | 343° |
| 2026-05-05 20:45 | 46.84121 | 13.60668 | 35937 ft | 452 kts | 343° |
| 2026-05-05 20:45 | 46.90229 | 13.58589 | 35919 ft | 454 kts | 343° |
| 2026-05-05 20:46 | 46.96366 | 13.56498 | 35918 ft | 454 kts | 343° |
| 2026-05-05 20:46 | 47.02499 | 13.54402 | 35931 ft | 454 kts | 343° |
| 2026-05-05 20:47 | 47.08646 | 13.52296 | 35927 ft | 454 kts | 343° |
| 2026-05-05 20:47 | 47.14825 | 13.50174 | 35909 ft | 455 kts | 343° |
| 2026-05-05 20:48 | 47.20967 | 13.48057 | 35914 ft | 455 kts | 343° |
| 2026-05-05 20:48 | 47.27092 | 13.45941 | 35917 ft | 455 kts | 343° |
| 2026-05-05 20:49 | 47.33235 | 13.43817 | 35910 ft | 456 kts | 343° |
| 2026-05-05 20:49 | 47.39405 | 13.41674 | 35912 ft | 457 kts | 344° |
| 2026-05-05 20:50 | 47.45615 | 13.39514 | 35901 ft | 458 kts | 344° |
| 2026-05-05 20:50 | 47.51735 | 13.37087 | 35896 ft | 456 kts | 339° |
| 2026-05-05 20:51 | 47.57746 | 13.34158 | 35898 ft | 456 kts | 338° |
| 2026-05-05 20:51 | 47.63752 | 13.31180 | 35895 ft | 456 kts | 338° |
| 2026-05-05 20:52 | 47.69758 | 13.28208 | 35892 ft | 457 kts | 338° |
| 2026-05-05 20:52 | 47.75761 | 13.25235 | 35881 ft | 456 kts | 338° |
| 2026-05-05 20:53 | 47.81822 | 13.22226 | 35859 ft | 457 kts | 338° |
| 2026-05-05 20:53 | 47.87832 | 13.19237 | 35853 ft | 458 kts | 338° |
| 2026-05-05 20:54 | 47.93856 | 13.16235 | 35850 ft | 459 kts | 338° |
| 2026-05-05 20:54 | 47.99939 | 13.13195 | 35845 ft | 460 kts | 338° |
| 2026-05-05 20:55 | 48.05999 | 13.10156 | 35844 ft | 461 kts | 339° |
| 2026-05-05 20:55 | 48.12078 | 13.07105 | 35833 ft | 461 kts | 338° |
| 2026-05-05 20:56 | 48.18053 | 13.03664 | 35834 ft | 459 kts | 331° |
| 2026-05-05 20:56 | 48.23509 | 12.98826 | 35828 ft | 455 kts | 321° |
| 2026-05-05 20:57 | 48.28254 | 12.92710 | 35835 ft | 451 kts | 310° |
| 2026-05-05 20:57 | 48.32455 | 12.85710 | 35834 ft | 452 kts | 307° |
| 2026-05-05 20:58 | 48.36585 | 12.78622 | 35846 ft | 453 kts | 307° |
| 2026-05-05 20:58 | 48.40727 | 12.71534 | 35836 ft | 453 kts | 307° |
| 2026-05-05 20:59 | 48.44891 | 12.64412 | 35841 ft | 454 kts | 307° |
| 2026-05-05 20:59 | 48.49027 | 12.57324 | 35857 ft | 455 kts | 307° |
| 2026-05-05 21:00 | 48.53207 | 12.50139 | 35848 ft | 456 kts | 307° |
| 2026-05-05 21:00 | 48.57362 | 12.42983 | 35845 ft | 456 kts | 307° |
| 2026-05-05 21:01 | 48.61530 | 12.35785 | 35847 ft | 456 kts | 307° |
| 2026-05-05 21:01 | 48.65701 | 12.28550 | 35835 ft | 457 kts | 306° |
| 2026-05-05 21:02 | 48.69801 | 12.21315 | 35830 ft | 455 kts | 302° |
| 2026-05-05 21:02 | 48.73196 | 12.13306 | 35815 ft | 449 kts | 291° |
| 2026-05-05 21:03 | 48.75510 | 12.04689 | 35815 ft | 442 kts | 281° |
| 2026-05-05 21:03 | 48.76804 | 11.95644 | 35831 ft | 438 kts | 274° |
| 2026-05-05 21:04 | 48.77760 | 11.86558 | 35829 ft | 438 kts | 274° |
| 2026-05-05 21:04 | 48.78716 | 11.77484 | 35830 ft | 439 kts | 274° |
| 2026-05-05 21:05 | 48.79683 | 11.68356 | 35832 ft | 439 kts | 274° |
| 2026-05-05 21:05 | 48.80638 | 11.59288 | 35847 ft | 439 kts | 274° |
| 2026-05-05 21:06 | 48.81586 | 11.50144 | 35835 ft | 439 kts | 274° |
| 2026-05-05 21:06 | 48.82520 | 11.41037 | 35504 ft | 439 kts | 274° |
| 2026-05-05 21:07 | 48.82984 | 11.36484 | 35266 ft | 438 kts | 274° |
| 2026-05-05 21:07 | 48.83576 | 11.31955 | 35024 ft | 440 kts | 279° |
| 2026-05-05 21:07 | 48.84507 | 11.27533 | 34788 ft | 442 kts | 286° |
| 2026-05-05 21:07 | 48.85754 | 11.23322 | 34471 ft | 446 kts | 292° |
| 2026-05-05 21:08 | 48.87352 | 11.19247 | 33938 ft | 451 kts | 300° |
| 2026-05-05 21:08 | 48.89282 | 11.15435 | 33240 ft | 457 kts | 307° |
| 2026-05-05 21:08 | 48.91470 | 11.12024 | 32707 ft | 457 kts | 313° |
| 2026-05-05 21:08 | 48.93811 | 11.08768 | 32134 ft | 456 kts | 315° |
| 2026-05-05 21:09 | 48.96170 | 11.05568 | 31568 ft | 454 kts | 315° |
| 2026-05-05 21:09 | 48.98500 | 11.02369 | 31008 ft | 452 kts | 315° |
| 2026-05-05 21:09 | 49.00785 | 10.99183 | 30442 ft | 450 kts | 315° |
| 2026-05-05 21:09 | 49.03080 | 10.95961 | 29861 ft | 448 kts | 315° |
| 2026-05-05 21:10 | 49.05355 | 10.92760 | 29336 ft | 445 kts | 315° |
| 2026-05-05 21:10 | 49.07608 | 10.89589 | 28874 ft | 440 kts | 314° |
| 2026-05-05 21:10 | 49.09831 | 10.86457 | 28452 ft | 434 kts | 314° |
| 2026-05-05 21:10 | 49.12039 | 10.83338 | 28031 ft | 428 kts | 314° |
| 2026-05-05 21:11 | 49.14201 | 10.80279 | 27639 ft | 421 kts | 314° |
| 2026-05-05 21:11 | 49.16302 | 10.77299 | 27238 ft | 416 kts | 314° |
| 2026-05-05 21:11 | 49.18409 | 10.74312 | 26838 ft | 410 kts | 314° |
| 2026-05-05 21:11 | 49.20446 | 10.71308 | 26425 ft | 404 kts | 312° |
| 2026-05-05 21:12 | 49.22394 | 10.68275 | 26037 ft | 399 kts | 311° |
| 2026-05-05 21:12 | 49.24307 | 10.65255 | 25641 ft | 393 kts | 311° |
| 2026-05-05 21:12 | 49.26191 | 10.62273 | 25261 ft | 389 kts | 311° |
| 2026-05-05 21:12 | 49.28027 | 10.59364 | 24903 ft | 384 kts | 311° |
| 2026-05-05 21:13 | 49.29906 | 10.56388 | 24580 ft | 394 kts | 311° |
| 2026-05-05 21:13 | 49.31811 | 10.53369 | 24262 ft | 395 kts | 311° |
| 2026-05-05 21:13 | 49.33715 | 10.50356 | 23976 ft | 394 kts | 311° |
| 2026-05-05 21:13 | 49.35552 | 10.47294 | 23834 ft | 389 kts | 307° |
| 2026-05-05 21:14 | 49.37238 | 10.44068 | 23827 ft | 388 kts | 303° |
| 2026-05-05 21:14 | 49.38807 | 10.40713 | 23826 ft | 387 kts | 302° |
| 2026-05-05 21:14 | 49.40346 | 10.37335 | 23823 ft | 388 kts | 302° |
| 2026-05-05 21:14 | 49.41884 | 10.33943 | 23822 ft | 388 kts | 301° |
| 2026-05-05 21:15 | 49.43419 | 10.30560 | 23779 ft | 388 kts | 301° |
| 2026-05-05 21:15 | 49.44958 | 10.27168 | 23250 ft | 388 kts | 301° |
| 2026-05-05 21:15 | 49.46487 | 10.23768 | 22635 ft | 387 kts | 301° |
| 2026-05-05 21:15 | 49.47964 | 10.20303 | 22014 ft | 386 kts | 300° |
| 2026-05-05 21:16 | 49.49394 | 10.16883 | 21412 ft | 385 kts | 300° |
| 2026-05-05 21:16 | 49.50837 | 10.13426 | 20796 ft | 384 kts | 300° |
| 2026-05-05 21:16 | 49.52282 | 10.09962 | 20174 ft | 383 kts | 300° |
| 2026-05-05 21:16 | 49.53708 | 10.06550 | 19557 ft | 382 kts | 300° |
| 2026-05-05 21:17 | 49.55136 | 10.03126 | 18933 ft | 380 kts | 301° |
| 2026-05-05 21:17 | 49.56559 | 9.99719 | 18404 ft | 376 kts | 301° |
| 2026-05-05 21:17 | 49.57966 | 9.96351 | 17951 ft | 370 kts | 301° |
| 2026-05-05 21:17 | 49.59326 | 9.93093 | 17520 ft | 364 kts | 301° |
| 2026-05-05 21:18 | 49.60682 | 9.89842 | 17095 ft | 359 kts | 301° |
| 2026-05-05 21:18 | 49.62016 | 9.86640 | 16664 ft | 354 kts | 301° |
| 2026-05-05 21:18 | 49.63332 | 9.83472 | 16191 ft | 350 kts | 301° |
| 2026-05-05 21:18 | 49.64640 | 9.80324 | 15715 ft | 347 kts | 300° |
| 2026-05-05 21:19 | 49.65931 | 9.77209 | 15205 ft | 346 kts | 300° |
| 2026-05-05 21:19 | 49.67220 | 9.74098 | 14681 ft | 344 kts | 300° |
| 2026-05-05 21:19 | 49.68498 | 9.71007 | 14211 ft | 341 kts | 300° |
| 2026-05-05 21:19 | 49.69760 | 9.67952 | 13786 ft | 336 kts | 300° |
| 2026-05-05 21:20 | 49.71003 | 9.64941 | 13384 ft | 331 kts | 300° |
| 2026-05-05 21:20 | 49.72228 | 9.61971 | 12986 ft | 326 kts | 300° |
| 2026-05-05 21:20 | 49.73434 | 9.59040 | 12575 ft | 322 kts | 300° |
| 2026-05-05 21:20 | 49.74628 | 9.56137 | 12165 ft | 318 kts | 300° |
| 2026-05-05 21:21 | 49.75806 | 9.53269 | 11769 ft | 314 kts | 300° |
| 2026-05-05 21:21 | 49.76957 | 9.50460 | 11390 ft | 322 kts | 300° |
| 2026-05-05 21:21 | 49.78186 | 9.47453 | 10965 ft | 336 kts | 300° |
| 2026-05-05 21:21 | 49.79437 | 9.44396 | 10550 ft | 335 kts | 300° |
| 2026-05-05 21:22 | 49.80679 | 9.41365 | 10152 ft | 333 kts | 300° |
| 2026-05-05 21:22 | 49.81909 | 9.38356 | 9875 ft | 331 kts | 300° |
| 2026-05-05 21:22 | 49.83137 | 9.35349 | 9759 ft | 331 kts | 300° |
| 2026-05-05 21:22 | 49.84352 | 9.32365 | 9333 ft | 329 kts | 299° |
| 2026-05-05 21:23 | 49.85566 | 9.29381 | 8894 ft | 327 kts | 299° |
| 2026-05-05 21:23 | 49.86764 | 9.26432 | 8500 ft | 320 kts | 299° |
| 2026-05-05 21:23 | 49.87926 | 9.23572 | 8083 ft | 304 kts | 300° |
| 2026-05-05 21:23 | 49.89012 | 9.20898 | 7685 ft | 299 kts | 299° |
| 2026-05-05 21:24 | 49.90141 | 9.18102 | 7360 ft | 304 kts | 300° |
| 2026-05-05 21:24 | 49.91242 | 9.15380 | 6613 ft | 302 kts | 300° |
| 2026-05-05 21:24 | 49.92366 | 9.12594 | 5740 ft | 308 kts | 300° |
| 2026-05-05 21:24 | 49.93486 | 9.09821 | 5204 ft | 294 kts | 300° |
| 2026-05-05 21:25 | 49.94522 | 9.07263 | 4971 ft | 268 kts | 300° |
| 2026-05-05 21:25 | 49.95466 | 9.04931 | 4958 ft | 244 kts | 300° |
| 2026-05-05 21:25 | 49.96388 | 9.02857 | 4953 ft | 230 kts | 308° |
| 2026-05-05 21:25 | 49.97512 | 9.01098 | 4955 ft | 224 kts | 318° |
| 2026-05-05 21:26 | 49.98737 | 8.99636 | 4932 ft | 219 kts | 321° |
| 2026-05-05 21:26 | 49.99967 | 8.98241 | 4650 ft | 219 kts | 321° |
| 2026-05-05 21:26 | 50.01146 | 8.96787 | 4323 ft | 215 kts | 314° |
| 2026-05-05 21:26 | 50.02144 | 8.95114 | 4064 ft | 206 kts | 306° |
| 2026-05-05 21:27 | 50.02988 | 8.93386 | 4063 ft | 196 kts | 304° |
| 2026-05-05 21:27 | 50.03766 | 8.91757 | 4013 ft | 184 kts | 304° |
| 2026-05-05 21:27 | 50.04520 | 8.90168 | 3765 ft | 180 kts | 304° |
| 2026-05-05 21:27 | 50.05254 | 8.88627 | 3557 ft | 174 kts | 304° |
| 2026-05-05 21:28 | 50.05882 | 8.87077 | 3428 ft | 170 kts | 291° |
| 2026-05-05 21:28 | 50.06157 | 8.85285 | 3391 ft | 170 kts | 276° |
| 2026-05-05 21:28 | 50.06260 | 8.83472 | 3395 ft | 170 kts | 274° |
| 2026-05-05 21:28 | 50.06343 | 8.81634 | 3396 ft | 170 kts | 273° |
| 2026-05-05 21:29 | 50.06427 | 8.79813 | 3260 ft | 171 kts | 274° |
| 2026-05-05 21:29 | 50.06515 | 8.77970 | 2978 ft | 169 kts | 274° |
| 2026-05-05 21:29 | 50.06605 | 8.76154 | 2675 ft | 168 kts | 274° |
| 2026-05-05 21:29 | 50.06696 | 8.74342 | 2426 ft | 169 kts | 274° |
| 2026-05-05 21:30 | 50.06788 | 8.72536 | 2190 ft | 169 kts | 274° |
| 2026-05-05 21:30 | 50.06835 | 8.70730 | 1960 ft | 165 kts | 263° |
| 2026-05-05 21:30 | 50.06530 | 8.69079 | 1748 ft | 150 kts | 250° |
| 2026-05-05 21:30 | 50.06177 | 8.67631 | 1538 ft | 139 kts | 249° |
| 2026-05-05 21:31 | 50.05830 | 8.66246 | 1370 ft | 137 kts | 249° |
| 2026-05-05 21:31 | 50.05487 | 8.64853 | 1195 ft | 136 kts | 249° |
| 2026-05-05 21:31 | 50.05158 | 8.63482 | 1015 ft | 136 kts | 249° |
| 2026-05-05 21:31 | 50.04831 | 8.62094 | 854 ft | 136 kts | 249° |
| 2026-05-05 21:32 | 50.04501 | 8.60721 | 697 ft | 135 kts | 249° |
| 2026-05-05 21:32 | 50.04178 | 8.59360 | 510 ft | 135 kts | 249° |
| 2026-05-05 21:32 | 50.03851 | 8.58001 | 364 ft | 131 kts | 248° |
| 2026-05-05 21:32 | 50.03589 | 8.56912 | 342 ft | 82 kts | 250° |
| 2026-05-05 21:33 | 50.03451 | 8.56334 | 340 ft | 33 kts | 250° |
| 2026-05-05 21:33 | 50.03434 | 8.56089 | 338 ft | 17 kts | 281° |
| 2026-05-05 21:33 | 50.03448 | 8.55960 | 337 ft | 8 kts | 279° |
| 2026-05-05 21:33 | 50.03460 | 8.55856 | 337 ft | 10 kts | 280° |
| 2026-05-05 21:34 | 50.03473 | 8.55736 | 337 ft | 12 kts | 279° |
| 2026-05-05 21:34 | 50.03487 | 8.55598 | 337 ft | 13 kts | 279° |
| 2026-05-05 21:34 | 50.03486 | 8.55446 | 337 ft | 14 kts | 256° |
| 2026-05-05 21:34 | 50.03449 | 8.55291 | 336 ft | 16 kts | 250° |
| 2026-05-05 21:35 | 50.03408 | 8.55119 | 335 ft | 17 kts | 249° |
| 2026-05-05 21:35 | 50.03364 | 8.54938 | 335 ft | 18 kts | 250° |
| 2026-05-05 21:35 | 50.03317 | 8.54743 | 334 ft | 19 kts | 249° |
| 2026-05-05 21:35 | 50.03278 | 8.54571 | 331 ft | 12 kts | 258° |
| 2026-05-05 21:36 | 50.03310 | 8.54484 | 331 ft | 9 kts | 333° |
| 2026-05-05 21:36 | 50.03368 | 8.54449 | 331 ft | 7 kts | 341° |
| 2026-05-05 21:36 | 50.03415 | 8.54422 | 332 ft | 7 kts | 340° |
| 2026-05-05 21:36 | 50.03472 | 8.54389 | 333 ft | 10 kts | 339° |
| 2026-05-05 21:37 | 50.03543 | 8.54347 | 335 ft | 11 kts | 340° |
| 2026-05-05 21:37 | 50.03615 | 8.54310 | 337 ft | 10 kts | 350° |
| 2026-05-05 21:37 | 50.03670 | 8.54368 | 337 ft | 11 kts | 69° |
| 2026-05-05 21:37 | 50.03701 | 8.54499 | 338 ft | 14 kts | 70° |
| 2026-05-05 21:38 | 50.03737 | 8.54648 | 339 ft | 14 kts | 70° |
| 2026-05-05 21:38 | 50.03772 | 8.54792 | 342 ft | 13 kts | 70° |
| 2026-05-05 21:38 | 50.03788 | 8.54861 | 343 ft | 4 kts | 69° |
| 2026-05-05 21:38 | 50.03802 | 8.54920 | 343 ft | 7 kts | 69° |
| 2026-05-05 21:39 | 50.03827 | 8.55021 | 344 ft | 11 kts | 70° |
| 2026-05-05 21:39 | 50.03852 | 8.55131 | 347 ft | 9 kts | 70° |
| 2026-05-05 21:39 | 50.03877 | 8.55234 | 348 ft | 10 kts | 70° |
| 2026-05-05 21:39 | 50.03905 | 8.55348 | 348 ft | 11 kts | 69° |
| 2026-05-05 21:40 | 50.03941 | 8.55454 | 349 ft | 10 kts | 41° |
| 2026-05-05 21:40 | 50.04004 | 8.55449 | 351 ft | 8 kts | 338° |
| 2026-05-05 21:40 | 50.04051 | 8.55421 | 352 ft | 6 kts | 340° |
| 2026-05-05 21:40 | 50.04082 | 8.55406 | 353 ft | 3 kts | 355° |
| 2026-05-05 21:41 | 50.04098 | 8.55410 | 354 ft | 2 kts | 19° |
| 2026-05-05 21:41 | 50.04118 | 8.55437 | 355 ft | 5 kts | 59° |
| 2026-05-05 21:41 | 50.04136 | 8.55504 | 356 ft | 7 kts | 70° |
| 2026-05-05 21:41 | 50.04126 | 8.55579 | 354 ft | 9 kts | 146° |
| 2026-05-05 21:42 | 50.04076 | 8.55610 | 353 ft | 5 kts | 159° |
| 2026-05-05 21:42 | 50.04064 | 8.55617 | 353 ft | 0 kts | 159° |